sensor_id;sensor_type;location;lat;lon;timestamp;pressure;altitude;pressure_sealevel;temperature;humidity
33949;BME280;20229;49.856;19.030;2022-09-17T00:01:27;100620.02;;;9.52;93.48
33949;BME280;20229;49.856;19.030;2022-09-17T00:06:33;100612.67;;;9.54;93.22
33949;BME280;20229;49.856;19.030;2022-09-17T00:11:51;100604.81;;;9.48;93.67
33949;BME280;20229;49.856;19.030;2022-09-17T00:16:55;100602.66;;;9.55;93.72
33949;BME280;20229;49.856;19.030;2022-09-17T00:22:17;100619.72;;;9.58;94.50
33949;BME280;20229;49.856;19.030;2022-09-17T00:27:20;100615.85;;;9.63;94.63
33949;BME280;20229;49.856;19.030;2022-09-17T00:32:43;100621.47;;;9.60;94.65
33949;BME280;20229;49.856;19.030;2022-09-17T00:37:46;100612.48;;;9.57;94.33
33949;BME280;20229;49.856;19.030;2022-09-17T00:43:10;100610.11;;;9.51;94.89
33949;BME280;20229;49.856;19.030;2022-09-17T00:48:14;100604.72;;;9.50;94.80
33949;BME280;20229;49.856;19.030;2022-09-17T00:53:33;100608.02;;;9.39;94.55
33949;BME280;20229;49.856;19.030;2022-09-17T00:58:37;100599.23;;;9.34;94.76
33949;BME280;20229;49.856;19.030;2022-09-17T01:03:58;100593.12;;;9.29;94.67
33949;BME280;20229;49.856;19.030;2022-09-17T01:09:18;100595.79;;;9.30;95.23
33949;BME280;20229;49.856;19.030;2022-09-17T01:14:37;100594.97;;;9.28;95.54
33949;BME280;20229;49.856;19.030;2022-09-17T01:35:38;100615.41;;;9.37;95.93
33949;BME280;20229;49.856;19.030;2022-09-17T01:46:06;100625.80;;;9.46;95.60
33949;BME280;20229;49.856;19.030;2022-09-17T01:51:16;100614.27;;;9.58;95.83
33949;BME280;20229;49.856;19.030;2022-09-17T01:56:36;100619.62;;;9.60;95.51
33949;BME280;20229;49.856;19.030;2022-09-17T02:01:35;100617.28;;;9.70;94.80
33949;BME280;20229;49.856;19.030;2022-09-17T02:06:44;100619.52;;;9.79;95.16
33949;BME280;20229;49.856;19.030;2022-09-17T02:11:56;100628.77;;;9.92;95.06
33949;BME280;20229;49.856;19.030;2022-09-17T02:17:11;100631.50;;;9.92;94.19
33949;BME280;20229;49.856;19.030;2022-09-17T02:22:29;100631.80;;;10.03;94.69
33949;BME280;20229;49.856;19.030;2022-09-17T02:32:55;100633.84;;;10.16;93.91
33949;BME280;20229;49.856;19.030;2022-09-17T02:37:59;100625.38;;;10.20;93.84
33949;BME280;20229;49.856;19.030;2022-09-17T02:48:27;100623.46;;;10.22;92.75
33949;BME280;20229;49.856;19.030;2022-09-17T02:58:56;100605.75;;;10.14;92.53
33949;BME280;20229;49.856;19.030;2022-09-17T03:04:07;100591.67;;;10.05;92.67
33949;BME280;20229;49.856;19.030;2022-09-17T03:09:15;100588.94;;;9.90;92.48
33949;BME280;20229;49.856;19.030;2022-09-17T03:14:19;100587.59;;;9.81;92.49
33949;BME280;20229;49.856;19.030;2022-09-17T03:19:31;100585.87;;;9.63;92.82
33949;BME280;20229;49.856;19.030;2022-09-17T03:24:34;100581.07;;;9.50;93.06
33949;BME280;20229;49.856;19.030;2022-09-17T03:29:56;100580.23;;;9.32;93.53
33949;BME280;20229;49.856;19.030;2022-09-17T03:35:02;100573.34;;;9.25;93.42
33949;BME280;20229;49.856;19.030;2022-09-17T03:40:21;100569.44;;;9.14;93.60
33949;BME280;20229;49.856;19.030;2022-09-17T03:45:25;100551.66;;;9.06;93.83
33949;BME280;20229;49.856;19.030;2022-09-17T03:50:47;100548.77;;;8.92;94.02
33949;BME280;20229;49.856;19.030;2022-09-17T03:55:50;100544.61;;;8.85;94.29
33949;BME280;20229;49.856;19.030;2022-09-17T04:01:12;100544.30;;;8.74;94.67
33949;BME280;20229;49.856;19.030;2022-09-17T04:06:16;100548.29;;;8.67;94.75
33949;BME280;20229;49.856;19.030;2022-09-17T04:11:38;100562.49;;;8.54;94.85
33949;BME280;20229;49.856;19.030;2022-09-17T04:16:41;100543.79;;;8.48;94.59
33949;BME280;20229;49.856;19.030;2022-09-17T04:22:03;100546.11;;;8.37;95.38
33949;BME280;20229;49.856;19.030;2022-09-17T04:27:07;100555.23;;;8.36;95.78
33949;BME280;20229;49.856;19.030;2022-09-17T04:32:30;100559.88;;;8.34;96.31
33949;BME280;20229;49.856;19.030;2022-09-17T04:37:34;100556.09;;;8.38;96.02
33949;BME280;20229;49.856;19.030;2022-09-17T04:42:57;100560.65;;;8.37;96.20
33949;BME280;20229;49.856;19.030;2022-09-17T04:48:06;100548.41;;;8.46;96.54
33949;BME280;20229;49.856;19.030;2022-09-17T04:53:22;100548.84;;;8.56;96.44
33949;BME280;20229;49.856;19.030;2022-09-17T04:58:25;100542.20;;;8.79;96.47
33949;BME280;20229;49.856;19.030;2022-09-17T05:03:48;100564.64;;;9.01;96.64
33949;BME280;20229;49.856;19.030;2022-09-17T05:08:52;100564.37;;;9.41;95.78
33949;BME280;20229;49.856;19.030;2022-09-17T05:14:13;100567.53;;;9.82;94.92
33949;BME280;20229;49.856;19.030;2022-09-17T05:19:17;100558.77;;;10.24;93.32
33949;BME280;20229;49.856;19.030;2022-09-17T05:24:38;100549.54;;;10.59;92.30
33949;BME280;20229;49.856;19.030;2022-09-17T05:29:42;100539.63;;;11.02;91.06
33949;BME280;20229;49.856;19.030;2022-09-17T05:35:04;100569.12;;;11.41;89.56
33949;BME280;20229;49.856;19.030;2022-09-17T05:40:08;100555.17;;;11.75;87.27
33949;BME280;20229;49.856;19.030;2022-09-17T05:45:31;100554.30;;;12.03;86.05
33949;BME280;20229;49.856;19.030;2022-09-17T05:50:35;100550.52;;;12.32;84.70
33949;BME280;20229;49.856;19.030;2022-09-17T05:55:56;100561.59;;;12.58;83.31
33949;BME280;20229;49.856;19.030;2022-09-17T06:01:00;100552.17;;;12.89;82.88
33949;BME280;20229;49.856;19.030;2022-09-17T06:06:20;100548.27;;;13.06;81.48
33949;BME280;20229;49.856;19.030;2022-09-17T06:11:24;100546.78;;;13.14;80.13
33949;BME280;20229;49.856;19.030;2022-09-17T06:16:46;100528.48;;;13.15;80.02
33949;BME280;20229;49.856;19.030;2022-09-17T06:21:49;100534.00;;;13.41;80.61
33949;BME280;20229;49.856;19.030;2022-09-17T06:27:11;100543.43;;;13.62;79.01
33949;BME280;20229;49.856;19.030;2022-09-17T06:32:15;100549.58;;;13.78;77.53
33949;BME280;20229;49.856;19.030;2022-09-17T06:37:37;100570.19;;;13.84;77.36
33949;BME280;20229;49.856;19.030;2022-09-17T06:42:42;100543.96;;;13.80;77.67
33949;BME280;20229;49.856;19.030;2022-09-17T06:48:03;100548.23;;;13.84;78.35
33949;BME280;20229;49.856;19.030;2022-09-17T06:53:08;100553.28;;;14.03;76.79
33949;BME280;20229;49.856;19.030;2022-09-17T06:58:28;100547.02;;;14.38;76.31
33949;BME280;20229;49.856;19.030;2022-09-17T07:05:02;100535.09;;;14.63;74.33
33949;BME280;20229;49.856;19.030;2022-09-17T07:10:27;100550.01;;;14.71;74.45
33949;BME280;20229;49.856;19.030;2022-09-17T07:15:31;100563.38;;;15.00;72.35
33949;BME280;20229;49.856;19.030;2022-09-17T07:20:57;100578.45;;;15.18;72.63
33949;BME280;20229;49.856;19.030;2022-09-17T07:26:11;100581.62;;;15.83;71.96
33949;BME280;20229;49.856;19.030;2022-09-17T07:31:25;100594.41;;;16.29;67.87
33949;BME280;20229;49.856;19.030;2022-09-17T07:36:29;100594.80;;;16.24;68.68
33949;BME280;20229;49.856;19.030;2022-09-17T07:41:43;100610.21;;;16.15;68.55
33949;BME280;20229;49.856;19.030;2022-09-17T07:46:47;100586.67;;;16.22;69.37
33949;BME280;20229;49.856;19.030;2022-09-17T07:52:08;100599.20;;;16.15;67.10
33949;BME280;20229;49.856;19.030;2022-09-17T07:57:12;100603.95;;;16.02;67.39
33949;BME280;20229;49.856;19.030;2022-09-17T08:02:34;100588.77;;;15.85;68.26
33949;BME280;20229;49.856;19.030;2022-09-17T08:07:37;100585.39;;;15.82;68.09
33949;BME280;20229;49.856;19.030;2022-09-17T08:12:59;100588.52;;;15.77;67.72
33949;BME280;20229;49.856;19.030;2022-09-17T08:18:03;100587.92;;;16.30;67.93
33949;BME280;20229;49.856;19.030;2022-09-17T08:23:26;100601.60;;;16.97;65.02
33949;BME280;20229;49.856;19.030;2022-09-17T08:28:33;100594.24;;;17.18;64.31
33949;BME280;20229;49.856;19.030;2022-09-17T08:33:50;100599.85;;;17.28;64.69
33949;BME280;20229;49.856;19.030;2022-09-17T08:38:55;100595.16;;;18.03;63.19
33949;BME280;20229;49.856;19.030;2022-09-17T08:44:24;100598.85;;;18.53;61.83
33949;BME280;20229;49.856;19.030;2022-09-17T08:49:35;100583.76;;;18.67;60.34
33949;BME280;20229;49.856;19.030;2022-09-17T09:00:08;100576.79;;;17.92;59.79
33949;BME280;20229;49.856;19.030;2022-09-17T09:05:19;100571.50;;;18.10;59.42
33949;BME280;20229;49.856;19.030;2022-09-17T09:10:36;100580.59;;;18.31;59.65
33949;BME280;20229;49.856;19.030;2022-09-17T09:15:53;100596.75;;;18.36;59.47
33949;BME280;20229;49.856;19.030;2022-09-17T09:26:22;100605.52;;;18.10;57.99
33949;BME280;20229;49.856;19.030;2022-09-17T09:36:40;100622.81;;;18.12;58.71
33949;BME280;20229;49.856;19.030;2022-09-17T09:41:53;100619.88;;;18.35;58.43
33949;BME280;20229;49.856;19.030;2022-09-17T09:57:42;100609.64;;;19.45;55.75
33949;BME280;20229;49.856;19.030;2022-09-17T10:02:48;100592.59;;;19.50;54.73
33949;BME280;20229;49.856;19.030;2022-09-17T10:07:56;100585.45;;;19.76;55.47
33949;BME280;20229;49.856;19.030;2022-09-17T10:13:05;100597.49;;;20.04;54.95
33949;BME280;20229;49.856;19.030;2022-09-17T10:18:15;100610.56;;;20.22;53.50
33949;BME280;20229;49.856;19.030;2022-09-17T10:23:28;100613.45;;;20.30;51.96
33949;BME280;20229;49.856;19.030;2022-09-17T10:28:42;100611.18;;;20.06;54.13
33949;BME280;20229;49.856;19.030;2022-09-17T10:44:21;100616.31;;;20.01;53.19
33949;BME280;20229;49.856;19.030;2022-09-17T10:49:38;100626.94;;;20.05;52.22
33949;BME280;20229;49.856;19.030;2022-09-17T11:00:07;100617.66;;;19.77;53.56
33949;BME280;20229;49.856;19.030;2022-09-17T11:05:25;100615.63;;;19.41;52.31
33949;BME280;20229;49.856;19.030;2022-09-17T11:10:36;100609.02;;;18.93;53.04
33949;BME280;20229;49.856;19.030;2022-09-17T11:21:07;100643.77;;;17.73;56.19
33949;BME280;20229;49.856;19.030;2022-09-17T11:31:38;100631.60;;;16.45;59.69
33949;BME280;20229;49.856;19.030;2022-09-17T11:42:08;100617.54;;;15.81;62.59
33949;BME280;20229;49.856;19.030;2022-09-17T11:47:21;100612.43;;;15.88;62.21
33949;BME280;20229;49.856;19.030;2022-09-17T11:52:36;100614.46;;;16.08;62.79
33949;BME280;20229;49.856;19.030;2022-09-17T11:57:41;100595.13;;;16.53;62.13
33949;BME280;20229;49.856;19.030;2022-09-17T12:02:51;100591.53;;;17.07;60.78
33949;BME280;20229;49.856;19.030;2022-09-17T12:13:17;100586.46;;;17.65;58.31
33949;BME280;20229;49.856;19.030;2022-09-17T12:18:49;100557.46;;;17.92;58.67
33949;BME280;20229;49.856;19.030;2022-09-17T12:29:03;100552.81;;;18.33;58.07
33949;BME280;20229;49.856;19.030;2022-09-17T12:44:54;100514.82;;;18.75;57.62
33949;BME280;20229;49.856;19.030;2022-09-17T13:00:27;100519.53;;;18.44;56.51
33949;BME280;20229;49.856;19.030;2022-09-17T13:26:37;100531.89;;;18.40;57.28
33949;BME280;20229;49.856;19.030;2022-09-17T13:31:47;100554.28;;;18.37;57.98
33949;BME280;20229;49.856;19.030;2022-09-17T13:36:52;100514.79;;;18.15;57.58
33949;BME280;20229;49.856;19.030;2022-09-17T13:42:04;100512.57;;;18.00;58.18
33949;BME280;20229;49.856;19.030;2022-09-17T13:47:16;100509.32;;;17.85;58.45
33949;BME280;20229;49.856;19.030;2022-09-17T13:57:46;100504.64;;;16.81;62.75
33949;BME280;20229;49.856;19.030;2022-09-17T14:02:51;100503.78;;;16.14;66.13
33949;BME280;20229;49.856;19.030;2022-09-17T14:13:37;100510.64;;;15.41;70.00
33949;BME280;20229;49.856;19.030;2022-09-17T14:18:34;100518.96;;;15.17;72.13
33949;BME280;20229;49.856;19.030;2022-09-17T14:23:44;100521.14;;;15.01;71.60
33949;BME280;20229;49.856;19.030;2022-09-17T14:29:05;100533.20;;;14.87;72.73
33949;BME280;20229;49.856;19.030;2022-09-17T14:34:04;100531.05;;;14.79;75.03
33949;BME280;20229;49.856;19.030;2022-09-17T14:39:15;100529.41;;;14.77;75.30
33949;BME280;20229;49.856;19.030;2022-09-17T14:44:26;100531.29;;;14.76;74.88
33949;BME280;20229;49.856;19.030;2022-09-17T14:49:36;100518.55;;;14.75;76.77
33949;BME280;20229;49.856;19.030;2022-09-17T14:54:43;100502.58;;;14.80;76.71
33949;BME280;20229;49.856;19.030;2022-09-17T14:59:52;100497.14;;;14.92;76.81
33949;BME280;20229;49.856;19.030;2022-09-17T15:04:57;100489.02;;;15.01;76.18
33949;BME280;20229;49.856;19.030;2022-09-17T15:10:07;100495.67;;;14.99;77.36
33949;BME280;20229;49.856;19.030;2022-09-17T15:15:21;100501.27;;;14.97;76.92
33949;BME280;20229;49.856;19.030;2022-09-17T15:20:29;100502.24;;;14.85;77.35
33949;BME280;20229;49.856;19.030;2022-09-17T15:25:37;100511.73;;;14.81;77.38
33949;BME280;20229;49.856;19.030;2022-09-17T15:30:51;100525.65;;;14.67;78.47
33949;BME280;20229;49.856;19.030;2022-09-17T15:36:01;100510.73;;;14.58;78.37
33949;BME280;20229;49.856;19.030;2022-09-17T15:41:24;100509.43;;;14.51;79.49
33949;BME280;20229;49.856;19.030;2022-09-17T15:46:40;100505.91;;;14.49;80.23
33949;BME280;20229;49.856;19.030;2022-09-17T15:51:43;100503.08;;;14.38;80.21
33949;BME280;20229;49.856;19.030;2022-09-17T15:56:53;100503.80;;;14.28;80.11
33949;BME280;20229;49.856;19.030;2022-09-17T16:02:04;100515.67;;;14.16;81.81
33949;BME280;20229;49.856;19.030;2022-09-17T16:07:19;100508.02;;;14.08;82.65
33949;BME280;20229;49.856;19.030;2022-09-17T16:12:29;100514.52;;;13.95;83.70
33949;BME280;20229;49.856;19.030;2022-09-17T16:17:44;100514.97;;;13.88;84.28
33949;BME280;20229;49.856;19.030;2022-09-17T16:22:54;100516.88;;;13.75;84.24
33949;BME280;20229;49.856;19.030;2022-09-17T16:28:02;100516.44;;;13.69;83.38
33949;BME280;20229;49.856;19.030;2022-09-17T16:33:20;100518.65;;;13.51;83.52
33949;BME280;20229;49.856;19.030;2022-09-17T16:38:24;100519.30;;;13.42;83.20
33949;BME280;20229;49.856;19.030;2022-09-17T16:43:45;100521.26;;;13.27;83.52
33949;BME280;20229;49.856;19.030;2022-09-17T16:48:49;100509.16;;;13.16;82.95
33949;BME280;20229;49.856;19.030;2022-09-17T16:54:11;100500.57;;;12.96;83.09
33949;BME280;20229;49.856;19.030;2022-09-17T16:59:14;100499.26;;;12.88;83.61
33949;BME280;20229;49.856;19.030;2022-09-17T17:04:36;100506.14;;;12.81;83.86
33949;BME280;20229;49.856;19.030;2022-09-17T17:09:40;100496.93;;;12.82;83.72
33949;BME280;20229;49.856;19.030;2022-09-17T17:15:03;100497.17;;;12.79;84.48
33949;BME280;20229;49.856;19.030;2022-09-17T17:20:11;100490.70;;;12.80;84.48
33949;BME280;20229;49.856;19.030;2022-09-17T17:25:29;100492.84;;;12.75;84.63
33949;BME280;20229;49.856;19.030;2022-09-17T17:30:34;100500.32;;;12.73;84.42
33949;BME280;20229;49.856;19.030;2022-09-17T17:35:54;100509.73;;;12.69;84.99
33949;BME280;20229;49.856;19.030;2022-09-17T17:41:08;100504.05;;;12.72;84.48
33949;BME280;20229;49.856;19.030;2022-09-17T17:46:20;100500.52;;;12.70;85.54
33949;BME280;20229;49.856;19.030;2022-09-17T17:51:28;100503.14;;;12.72;84.59
33949;BME280;20229;49.856;19.030;2022-09-17T17:56:45;100506.33;;;12.65;85.52
33949;BME280;20229;49.856;19.030;2022-09-17T18:01:48;100508.95;;;12.67;84.81
33949;BME280;20229;49.856;19.030;2022-09-17T18:07:10;100509.35;;;12.61;84.81
33949;BME280;20229;49.856;19.030;2022-09-17T18:12:14;100514.08;;;12.59;83.99
33949;BME280;20229;49.856;19.030;2022-09-17T18:17:36;100517.10;;;12.54;84.60
33949;BME280;20229;49.856;19.030;2022-09-17T18:22:40;100507.06;;;12.55;84.34
33949;BME280;20229;49.856;19.030;2022-09-17T18:28:02;100508.34;;;12.49;84.40
33949;BME280;20229;49.856;19.030;2022-09-17T18:33:05;100503.73;;;12.50;84.29
33949;BME280;20229;49.856;19.030;2022-09-17T18:38:28;100521.36;;;12.46;84.55
33949;BME280;20229;49.856;19.030;2022-09-17T18:43:32;100511.20;;;12.48;84.64
33949;BME280;20229;49.856;19.030;2022-09-17T18:48:54;100527.71;;;12.46;84.49
33949;BME280;20229;49.856;19.030;2022-09-17T18:53:58;100528.50;;;12.48;84.47
33949;BME280;20229;49.856;19.030;2022-09-17T18:59:18;100537.00;;;12.43;85.53
33949;BME280;20229;49.856;19.030;2022-09-17T19:04:22;100532.72;;;12.39;85.65
33949;BME280;20229;49.856;19.030;2022-09-17T19:09:44;100540.37;;;12.34;86.55
33949;BME280;20229;49.856;19.030;2022-09-17T19:14:47;100530.59;;;12.30;87.76
33949;BME280;20229;49.856;19.030;2022-09-17T19:20:09;100532.07;;;12.22;87.79
33949;BME280;20229;49.856;19.030;2022-09-17T19:25:13;100529.45;;;12.20;87.56
33949;BME280;20229;49.856;19.030;2022-09-17T19:30:35;100527.23;;;12.12;88.83
33949;BME280;20229;49.856;19.030;2022-09-17T19:35:39;100528.10;;;12.13;89.32
33949;BME280;20229;49.856;19.030;2022-09-17T19:41:04;100532.02;;;12.09;90.50
33949;BME280;20229;49.856;19.030;2022-09-17T19:46:15;100534.65;;;12.10;90.08
33949;BME280;20229;49.856;19.030;2022-09-17T19:51:27;100537.70;;;12.06;90.74
33949;BME280;20229;49.856;19.030;2022-09-17T19:56:32;100528.70;;;12.04;89.70
33949;BME280;20229;49.856;19.030;2022-09-17T20:01:52;100522.94;;;11.94;90.84
33949;BME280;20229;49.856;19.030;2022-09-17T20:06:55;100530.46;;;11.90;90.93
33949;BME280;20229;49.856;19.030;2022-09-17T20:12:17;100533.77;;;11.81;91.46
33949;BME280;20229;49.856;19.030;2022-09-17T20:17:20;100532.91;;;11.81;91.29
33949;BME280;20229;49.856;19.030;2022-09-17T20:22:43;100534.16;;;11.75;92.01
33949;BME280;20229;49.856;19.030;2022-09-17T20:27:46;100522.36;;;11.75;91.66
33949;BME280;20229;49.856;19.030;2022-09-17T20:33:08;100527.15;;;11.71;92.58
33949;BME280;20229;49.856;19.030;2022-09-17T20:38:11;100520.69;;;11.72;92.23
33949;BME280;20229;49.856;19.030;2022-09-17T20:43:36;100525.47;;;11.68;92.59
33949;BME280;20229;49.856;19.030;2022-09-17T20:48:40;100518.15;;;11.69;92.29
33949;BME280;20229;49.856;19.030;2022-09-17T20:54:03;100523.81;;;11.66;93.15
33949;BME280;20229;49.856;19.030;2022-09-17T20:59:10;100518.93;;;11.71;93.24
33949;BME280;20229;49.856;19.030;2022-09-17T21:04:28;100534.36;;;11.72;93.79
33949;BME280;20229;49.856;19.030;2022-09-17T21:09:31;100531.43;;;11.75;93.21
33949;BME280;20229;49.856;19.030;2022-09-17T21:14:54;100536.71;;;11.64;92.12
33949;BME280;20229;49.856;19.030;2022-09-17T21:19:57;100532.50;;;11.58;91.55
33949;BME280;20229;49.856;19.030;2022-09-17T21:25:19;100542.36;;;11.46;91.16
33949;BME280;20229;49.856;19.030;2022-09-17T21:30:23;100534.95;;;11.34;91.34
33949;BME280;20229;49.856;19.030;2022-09-17T21:35:45;100549.54;;;11.19;91.80
33949;BME280;20229;49.856;19.030;2022-09-17T21:40:55;100550.70;;;11.15;91.94
33949;BME280;20229;49.856;19.030;2022-09-17T21:46:16;100557.62;;;11.06;92.22
33949;BME280;20229;49.856;19.030;2022-09-17T21:51:23;100558.58;;;11.05;92.09
33949;BME280;20229;49.856;19.030;2022-09-17T21:56:36;100558.98;;;10.99;92.86
33949;BME280;20229;49.856;19.030;2022-09-17T22:01:45;100559.92;;;10.98;92.77
33949;BME280;20229;49.856;19.030;2022-09-17T22:07:01;100563.13;;;10.90;93.10
33949;BME280;20229;49.856;19.030;2022-09-17T22:12:05;100559.51;;;10.90;93.16
33949;BME280;20229;49.856;19.030;2022-09-17T22:17:27;100551.60;;;10.85;93.95
33949;BME280;20229;49.856;19.030;2022-09-17T22:22:30;100555.80;;;10.91;93.50
33949;BME280;20229;49.856;19.030;2022-09-17T22:27:52;100551.50;;;10.87;93.88
33949;BME280;20229;49.856;19.030;2022-09-17T22:32:56;100555.73;;;10.92;94.18
33949;BME280;20229;49.856;19.030;2022-09-17T22:38:18;100546.73;;;10.90;94.94
33949;BME280;20229;49.856;19.030;2022-09-17T22:43:21;100531.91;;;10.94;94.73
33949;BME280;20229;49.856;19.030;2022-09-17T22:48:44;100540.98;;;10.95;94.88
33949;BME280;20229;49.856;19.030;2022-09-17T22:53:48;100541.68;;;10.98;95.07
33949;BME280;20229;49.856;19.030;2022-09-17T22:59:10;100528.02;;;10.98;94.58
33949;BME280;20229;49.856;19.030;2022-09-17T23:04:13;100542.48;;;11.00;94.76
33949;BME280;20229;49.856;19.030;2022-09-17T23:09:34;100534.39;;;10.99;95.48
33949;BME280;20229;49.856;19.030;2022-09-17T23:14:38;100531.37;;;11.04;94.95
33949;BME280;20229;49.856;19.030;2022-09-17T23:20:01;100545.02;;;11.04;94.56
33949;BME280;20229;49.856;19.030;2022-09-17T23:25:05;100540.33;;;11.06;95.19
33949;BME280;20229;49.856;19.030;2022-09-17T23:30:27;100542.30;;;11.04;95.05
33949;BME280;20229;49.856;19.030;2022-09-17T23:35:32;100536.65;;;11.07;94.14
33949;BME280;20229;49.856;19.030;2022-09-17T23:40:51;100533.12;;;11.05;95.76
33949;BME280;20229;49.856;19.030;2022-09-17T23:45:55;100530.20;;;11.08;95.92
33949;BME280;20229;49.856;19.030;2022-09-17T23:51:16;100534.87;;;11.06;96.42
33949;BME280;20229;49.856;19.030;2022-09-17T23:56:22;100531.18;;;11.07;95.52
